createdAt,value
2023-05-04T05:03:09.531Z,51.48
2023-05-04T05:04:09.480Z,50.25
2023-05-04T05:05:10.509Z,50.07
2023-05-04T05:06:09.491Z,49.99
2023-05-04T05:07:10.538Z,49.91
2023-05-04T05:08:09.533Z,49.84
2023-05-04T05:09:10.590Z,49.80
2023-05-04T05:10:10.635Z,49.76
2023-05-04T05:11:09.671Z,49.76
2023-05-04T05:12:09.714Z,49.76
2023-05-04T05:13:10.752Z,49.73
2023-05-04T05:14:10.725Z,49.72
2023-05-04T05:15:09.741Z,49.70
2023-05-04T05:16:10.787Z,49.66
2023-05-04T05:17:10.785Z,49.67
2023-05-04T05:18:10.851Z,49.65
2023-05-04T05:19:10.848Z,49.66
2023-05-04T05:20:10.890Z,49.65
2023-05-04T05:21:09.841Z,49.65
2023-05-04T05:22:10.871Z,49.65
2023-05-04T05:23:10.890Z,49.62
2023-05-04T05:24:09.914Z,49.61
2023-05-04T05:25:10.938Z,49.63
2023-05-04T05:26:09.928Z,49.62
2023-05-04T05:27:10.974Z,49.61
2023-05-04T05:28:10.960Z,49.59
2023-05-04T05:29:09.969Z,49.59
2023-05-04T05:30:11.011Z,49.59
2023-05-04T05:31:10.013Z,49.57
2023-05-04T05:32:10.013Z,49.57
2023-05-04T05:33:10.074Z,49.57
2023-05-04T05:34:10.033Z,49.58
2023-05-04T05:35:10.086Z,49.59
2023-05-04T05:36:11.100Z,49.55
2023-05-04T05:37:11.095Z,49.58
2023-05-04T05:38:11.099Z,49.56
2023-05-04T05:39:11.131Z,49.55
2023-05-04T05:40:10.154Z,49.55
2023-05-04T05:41:11.171Z,49.56
2023-05-04T05:42:11.184Z,49.58
2023-05-04T05:43:10.179Z,49.55
2023-05-04T05:44:12.908Z,49.54
2023-05-04T05:45:11.190Z,49.54
2023-05-04T05:46:10.204Z,49.52
2023-05-04T05:47:11.188Z,49.53
2023-05-04T05:48:10.228Z,49.57
2023-05-04T05:49:11.173Z,49.53
2023-05-04T05:50:11.145Z,49.51
2023-05-04T05:51:11.292Z,49.54
2023-05-04T05:52:11.134Z,49.52
2023-05-04T05:53:11.164Z,49.54
2023-05-04T05:54:11.156Z,49.55
2023-05-04T05:55:10.128Z,49.55
2023-05-04T05:56:11.136Z,49.54
2023-05-04T05:57:11.115Z,49.55
2023-05-04T05:58:11.099Z,49.52
2023-05-04T05:59:11.108Z,49.51
2023-05-04T06:00:11.096Z,49.52
2023-05-04T06:01:11.103Z,49.52
2023-05-04T06:02:10.155Z,49.52
2023-05-04T06:03:10.219Z,49.52
2023-05-04T06:04:11.167Z,49.51
2023-05-04T06:05:11.077Z,49.48
2023-05-04T06:06:11.059Z,49.52
2023-05-04T06:07:11.074Z,49.51
2023-05-04T06:08:10.045Z,49.52
2023-05-04T06:09:11.032Z,49.50
2023-05-04T06:10:11.035Z,49.49
2023-05-04T06:11:10.035Z,49.49
2023-05-04T06:12:09.995Z,49.49
2023-05-04T06:13:10.044Z,49.49
2023-05-04T06:14:09.986Z,49.49
2023-05-04T06:15:10.991Z,49.49
2023-05-04T06:16:10.044Z,49.49
2023-05-04T06:17:10.083Z,49.48
2023-05-04T06:18:10.960Z,49.46
2023-05-04T06:19:10.961Z,49.50
2023-05-04T06:20:09.976Z,49.51
2023-05-04T06:21:11.024Z,49.46
2023-05-04T06:22:09.978Z,49.48
2023-05-04T06:23:09.988Z,49.49
2023-05-04T06:24:09.932Z,49.48
2023-05-04T06:25:09.939Z,49.46
2023-05-04T06:26:09.966Z,49.45
2023-05-04T06:27:10.918Z,49.45
2023-05-04T06:28:10.901Z,49.45
2023-05-04T06:29:09.899Z,49.41
2023-05-04T06:30:10.888Z,49.41
2023-05-04T06:31:10.983Z,49.43
2023-05-04T06:32:09.986Z,49.45
2023-05-04T06:33:10.896Z,49.43
2023-05-04T06:34:09.884Z,49.45
2023-05-04T06:35:10.848Z,49.44
2023-05-04T06:36:09.841Z,49.47
2023-05-04T06:37:11.345Z,49.47
2023-05-04T06:38:10.895Z,49.48
2023-05-04T06:39:09.972Z,49.45
2023-05-04T06:40:10.204Z,49.33
2023-05-04T06:41:10.058Z,49.37
2023-05-04T06:42:11.059Z,49.34
2023-05-04T06:43:10.110Z,49.28
2023-05-04T06:44:10.157Z,49.26
2023-05-04T06:45:11.200Z,49.29
2023-05-04T06:46:11.292Z,49.26
2023-05-04T06:47:11.242Z,49.30
2023-05-04T06:48:11.283Z,49.28
2023-05-04T06:49:11.268Z,49.27
2023-05-04T06:50:11.253Z,49.31
2023-05-04T06:51:11.259Z,49.32
2023-05-04T06:52:11.274Z,49.30
2023-05-04T06:53:11.279Z,49.32
2023-05-04T06:54:11.283Z,49.30
2023-05-04T06:55:11.260Z,49.32
2023-05-04T06:56:10.683Z,49.36
2023-05-04T06:57:10.257Z,49.34
2023-05-04T06:58:11.278Z,49.34
2023-05-04T06:59:11.265Z,49.36
2023-05-04T07:00:11.264Z,49.36
2023-05-04T07:01:11.328Z,49.36
2023-05-04T07:02:11.310Z,49.37
2023-05-04T07:03:11.316Z,49.36
2023-05-04T07:04:11.301Z,49.40
2023-05-04T07:05:10.284Z,49.39
2023-05-04T07:06:10.291Z,49.41
2023-05-04T07:07:10.282Z,49.40
2023-05-04T07:08:11.311Z,49.37
2023-05-04T07:09:11.301Z,49.38
2023-05-04T07:10:10.351Z,49.38
2023-05-04T07:11:10.321Z,49.39
2023-05-04T07:12:11.304Z,49.40
2023-05-04T07:13:11.332Z,49.39
2023-05-04T07:14:11.348Z,49.37
2023-05-04T07:15:10.342Z,49.37
2023-05-04T07:16:10.382Z,49.36
2023-05-04T07:17:10.406Z,49.39
2023-05-04T07:18:11.443Z,49.39
2023-05-04T07:19:10.425Z,49.39
2023-05-04T07:20:11.425Z,49.39
2023-05-04T07:21:26.199Z,49.33
2023-05-04T07:22:11.375Z,49.33
2023-05-04T07:23:10.357Z,49.33
2023-05-04T07:24:11.362Z,49.35
2023-05-04T07:25:11.357Z,49.31
2023-05-04T07:26:11.438Z,49.31
2023-05-04T07:27:10.334Z,49.30
2023-05-04T07:28:10.323Z,49.30
2023-05-04T07:29:11.312Z,49.30
2023-05-04T07:30:11.316Z,49.29
2023-05-04T07:31:11.319Z,49.29
2023-05-04T07:32:11.368Z,49.33
2023-05-04T07:33:11.400Z,49.29
2023-05-04T07:34:11.282Z,49.29
2023-05-04T07:35:11.279Z,49.29
2023-05-04T07:36:11.292Z,49.35
2023-05-04T07:37:11.270Z,49.32
2023-05-04T07:38:11.271Z,49.33
2023-05-04T07:39:11.273Z,49.33
2023-05-04T07:40:10.294Z,49.35
2023-05-04T07:41:11.263Z,49.34
2023-05-04T07:42:10.336Z,49.36
2023-05-04T07:43:10.240Z,49.35
2023-05-04T07:44:11.233Z,49.34
2023-05-04T07:45:11.226Z,49.31
2023-05-04T07:46:11.213Z,49.35
2023-05-04T07:47:11.198Z,49.31
2023-05-04T07:48:10.217Z,49.32
2023-05-04T07:49:10.204Z,49.34
2023-05-04T07:50:11.270Z,49.32
2023-05-04T07:51:10.182Z,49.28
2023-05-04T07:52:10.186Z,49.19
2023-05-04T07:53:11.160Z,49.18
2023-05-04T07:54:11.152Z,49.17
2023-05-04T07:55:10.155Z,49.17
2023-05-04T07:56:11.176Z,49.11
2023-05-04T07:57:11.132Z,49.10
2023-05-04T07:58:10.215Z,49.09
2023-05-04T07:59:10.126Z,49.06
2023-05-04T08:00:11.128Z,49.04
2023-05-04T08:01:10.112Z,49.05
2023-05-04T08:02:10.205Z,49.05
2023-05-04T08:03:10.114Z,49.05
2023-05-04T08:04:11.084Z,49.05
2023-05-04T08:05:11.095Z,49.04
2023-05-04T08:06:11.093Z,49.05
2023-05-04T08:07:10.122Z,49.06
2023-05-04T08:08:11.193Z,49.06
2023-05-04T08:09:11.082Z,49.05
2023-05-04T08:10:10.111Z,49.06
2023-05-04T08:11:20.034Z,49.06
2023-05-04T08:12:11.145Z,49.06
2023-05-04T08:13:11.240Z,49.07
2023-05-04T08:14:10.186Z,49.06
2023-05-04T08:15:11.135Z,49.08
2023-05-04T08:16:10.108Z,49.05
2023-05-04T08:17:11.105Z,49.08
2023-05-04T08:18:10.088Z,49.09
2023-05-04T08:19:10.094Z,49.05
2023-05-04T08:20:10.127Z,49.04
2023-05-04T08:21:11.131Z,49.04
2023-05-04T08:22:11.145Z,49.05
2023-05-04T08:23:11.200Z,49.04
2023-05-04T08:24:10.256Z,49.04
2023-05-04T08:25:11.336Z,49.08
2023-05-04T08:26:11.389Z,49.08
2023-05-04T08:27:11.605Z,49.08
2023-05-04T08:28:11.502Z,49.05
2023-05-04T08:29:11.582Z,49.05
2023-05-04T08:30:11.664Z,49.08
2023-05-04T08:31:11.749Z,49.07
2023-05-04T08:32:10.785Z,49.07
2023-05-04T08:33:11.874Z,49.06
2023-05-04T08:34:10.902Z,49.02
2023-05-04T08:35:12.005Z,48.99
2023-05-04T08:36:11.014Z,48.98
2023-05-04T08:37:12.087Z,49.04
2023-05-04T08:38:11.186Z,49.04
2023-05-04T08:39:12.206Z,49.07
2023-05-04T08:40:12.278Z,49.04
2023-05-04T08:41:12.376Z,49.05
2023-05-04T08:42:11.722Z,49.04
2023-05-04T08:43:11.454Z,49.06
2023-05-04T08:44:12.536Z,49.07
2023-05-04T08:45:12.580Z,49.07
2023-05-04T08:46:12.715Z,49.10
2023-05-04T08:47:12.701Z,49.07
2023-05-04T08:48:12.758Z,49.07
2023-05-04T08:49:11.820Z,49.08
2023-05-04T08:50:12.906Z,49.06
2023-05-04T08:51:11.943Z,49.04
2023-05-04T08:52:13.033Z,48.99
2023-05-04T08:53:13.072Z,48.99
2023-05-04T08:54:12.139Z,48.91
2023-05-04T08:55:13.171Z,48.96
2023-05-04T08:56:13.208Z,48.98
2023-05-04T08:57:13.717Z,49.01
2023-05-04T08:58:12.368Z,49.03
2023-05-04T08:59:13.373Z,48.99
2023-05-04T09:00:13.439Z,49.01
2023-05-04T09:01:12.645Z,49.00
2023-05-04T09:02:13.753Z,48.98
2023-05-04T09:03:13.700Z,48.95
2023-05-04T09:04:13.709Z,48.99
2023-05-04T09:05:13.713Z,48.99
2023-05-04T09:06:13.773Z,49.01
2023-05-04T09:07:13.817Z,48.98
2023-05-04T09:08:12.874Z,49.01
2023-05-04T09:09:13.932Z,49.02
2023-05-04T09:10:13.978Z,49.01
2023-05-04T09:11:14.036Z,49.01
2023-05-04T09:12:14.084Z,48.98
2023-05-04T09:13:13.188Z,49.01
2023-05-04T09:14:14.189Z,49.06
2023-05-04T09:15:14.266Z,49.12
2023-05-04T09:16:14.875Z,49.14
2023-05-04T09:17:14.403Z,49.13
2023-05-04T09:18:14.615Z,49.13
2023-05-04T09:19:13.495Z,49.13
2023-05-04T09:20:14.558Z,49.15
2023-05-04T09:21:14.658Z,49.17
2023-05-04T09:22:14.698Z,49.18
2023-05-04T09:23:14.793Z,49.18
2023-05-04T09:24:14.806Z,49.25
2023-05-04T09:25:13.869Z,49.22
2023-05-04T09:26:14.942Z,49.26
2023-05-04T09:27:14.003Z,49.25
2023-05-04T09:28:15.072Z,49.25
2023-05-04T09:29:15.168Z,49.28
2023-05-04T09:30:15.221Z,49.28
2023-05-04T09:31:15.302Z,49.27
2023-05-04T09:32:15.388Z,49.27
2023-05-04T09:33:15.418Z,49.24
2023-05-04T09:34:15.549Z,49.28
2023-05-04T09:35:29.309Z,49.24
2023-05-04T09:36:15.483Z,49.25
2023-05-04T09:37:15.493Z,49.29
2023-05-04T09:38:15.476Z,49.30
2023-05-04T09:39:15.481Z,49.27
2023-05-04T09:40:14.453Z,49.27
2023-05-04T09:41:15.448Z,49.26
2023-05-04T09:42:14.438Z,49.27
2023-05-04T09:43:14.446Z,49.28
2023-05-04T09:44:15.438Z,49.26
2023-05-04T09:45:15.457Z,49.26
2023-05-04T09:46:14.458Z,49.25
2023-05-04T09:47:16.341Z,49.25
2023-05-04T09:48:14.416Z,49.27
2023-05-04T09:49:15.531Z,49.27
2023-05-04T09:50:16.839Z,49.24
2023-05-04T09:51:14.386Z,49.26
2023-05-04T09:52:15.719Z,49.23
2023-05-04T09:53:15.359Z,49.28
2023-05-04T09:54:15.369Z,49.26
2023-05-04T09:55:14.352Z,49.27
2023-05-04T09:56:14.362Z,49.48
2023-05-04T09:57:15.360Z,49.33
2023-05-04T09:58:14.333Z,49.31
2023-05-04T09:59:15.326Z,49.33
2023-05-04T10:00:15.320Z,49.30
2023-05-04T10:01:15.318Z,49.32
2023-05-04T10:02:22.792Z,49.43
2023-05-04T10:03:15.325Z,49.38
2023-05-04T10:04:15.289Z,49.38
2023-05-04T10:05:15.306Z,49.41
2023-05-04T10:06:15.427Z,49.45
2023-05-04T10:07:15.272Z,49.53
2023-05-04T10:08:14.255Z,49.59
2023-05-04T10:09:14.258Z,49.65
2023-05-04T10:10:15.244Z,49.72
2023-05-04T10:11:15.241Z,49.77
2023-05-04T10:12:15.234Z,49.80
2023-05-04T10:13:15.235Z,49.86
2023-05-04T10:14:14.213Z,49.93
2023-05-04T10:15:15.229Z,50.00
2023-05-04T10:16:15.238Z,50.06
2023-05-04T10:17:14.206Z,50.10
2023-05-04T10:18:15.186Z,50.13
2023-05-04T10:19:15.178Z,50.16
2023-05-04T10:20:14.187Z,50.20
2023-05-04T10:21:14.195Z,50.21
2023-05-04T10:22:15.178Z,50.24
2023-05-04T10:23:14.170Z,50.28
2023-05-04T10:24:15.156Z,50.30
2023-05-04T10:25:14.206Z,50.30
2023-05-04T10:26:14.245Z,50.34
2023-05-04T10:27:15.319Z,50.34
2023-05-04T10:28:14.353Z,50.34
2023-05-04T10:29:15.400Z,50.38
2023-05-04T10:30:14.452Z,50.37
2023-05-04T10:31:14.626Z,50.37
2023-05-04T10:32:14.568Z,50.31
2023-05-04T10:33:14.618Z,50.34
2023-05-04T10:34:15.644Z,50.35
2023-05-04T10:35:14.719Z,50.35
2023-05-04T10:36:14.749Z,50.35
2023-05-04T10:37:15.830Z,50.37
2023-05-04T10:38:15.922Z,50.40
2023-05-04T10:39:15.987Z,50.38
2023-05-04T10:40:14.999Z,50.38
2023-05-04T10:41:15.067Z,50.40
2023-05-04T10:42:16.244Z,50.41
2023-05-04T10:43:15.170Z,50.40
2023-05-04T10:44:15.199Z,50.43
2023-05-04T10:45:16.281Z,50.42
2023-05-04T10:46:16.308Z,50.43
2023-05-04T10:47:16.744Z,50.44
2023-05-04T10:48:16.328Z,50.44
2023-05-04T10:49:16.382Z,50.44
2023-05-04T10:50:15.510Z,50.49
2023-05-04T10:51:16.458Z,50.47
2023-05-04T10:52:15.481Z,50.47
2023-05-04T10:53:16.513Z,50.45
2023-05-04T10:54:15.558Z,50.46
2023-05-04T10:55:16.591Z,50.48
2023-05-04T10:56:16.618Z,50.47
2023-05-04T10:57:15.747Z,50.48
2023-05-04T10:58:16.784Z,50.49
2023-05-04T10:59:16.733Z,50.49
2023-05-04T11:00:16.797Z,50.54
2023-05-04T11:01:15.877Z,50.50
2023-05-04T11:02:16.899Z,50.51
2023-05-04T11:03:16.004Z,50.51
2023-05-04T11:04:16.976Z,50.50
2023-05-04T11:05:16.043Z,50.48
2023-05-04T11:06:17.069Z,50.50
2023-05-04T11:07:17.117Z,50.49
2023-05-04T11:08:17.151Z,50.50
2023-05-04T11:09:17.307Z,50.52
2023-05-04T11:10:16.261Z,50.45
2023-05-04T11:11:16.337Z,50.45
2023-05-04T11:12:17.409Z,50.48
2023-05-04T11:13:17.620Z,50.49
2023-05-04T11:14:17.466Z,50.48
2023-05-04T11:15:17.558Z,50.46
2023-05-04T11:16:17.624Z,50.48
2023-05-04T11:18:17.926Z,50.46
2023-05-04T11:19:16.643Z,50.45
2023-05-04T11:20:17.731Z,50.45
2023-05-04T11:21:16.816Z,50.46
2023-05-04T11:22:17.973Z,50.46
2023-05-04T11:23:16.958Z,50.44
2023-05-04T11:24:16.973Z,50.44
2023-05-04T11:25:18.154Z,50.41
2023-05-04T11:26:17.078Z,50.42
2023-05-04T11:27:17.110Z,50.42
2023-05-04T11:28:17.264Z,50.42
2023-05-04T11:29:17.227Z,50.38
2023-05-04T11:30:18.335Z,50.39
2023-05-04T11:31:17.431Z,50.43
2023-05-04T11:32:18.506Z,50.40
2023-05-04T11:33:17.539Z,50.38
2023-05-04T11:34:17.518Z,50.38
2023-05-04T11:35:18.596Z,50.37
2023-05-04T11:36:17.722Z,50.39
2023-05-04T11:37:17.772Z,50.36
2023-05-04T11:38:19.395Z,50.38
2023-05-04T11:39:17.841Z,50.39
2023-05-04T11:40:18.918Z,50.35
2023-05-04T11:41:19.098Z,50.32
2023-05-04T11:42:18.101Z,50.32
2023-05-04T11:43:19.129Z,50.35
2023-05-04T11:44:18.192Z,50.32
2023-05-04T11:45:18.257Z,50.31
2023-05-04T11:46:18.362Z,50.30
2023-05-04T11:47:18.321Z,50.29
2023-05-04T11:48:19.443Z,50.33
2023-05-04T11:49:18.539Z,50.29
2023-05-04T11:50:19.524Z,50.29
2023-05-04T11:51:19.552Z,50.28
2023-05-04T11:52:19.671Z,50.29
2023-05-04T11:53:18.750Z,50.25
2023-05-04T11:54:19.816Z,50.28
2023-05-04T11:55:18.791Z,50.24
2023-05-04T11:56:19.892Z,50.25
2023-05-04T11:57:19.070Z,50.24
2023-05-04T11:58:20.095Z,50.23
2023-05-04T11:59:19.099Z,50.23
2023-05-04T12:00:20.161Z,50.23
2023-05-04T12:01:20.233Z,50.24
2023-05-04T12:02:20.277Z,50.21
2023-05-04T12:03:19.413Z,50.22
2023-05-04T12:04:19.361Z,50.20
2023-05-04T12:05:20.440Z,50.21
2023-05-04T12:06:19.551Z,50.18
2023-05-04T12:07:19.551Z,50.18
2023-05-04T12:08:20.676Z,50.22
2023-05-04T12:09:19.717Z,50.25
2023-05-04T12:10:20.698Z,50.26
2023-05-04T12:11:19.762Z,50.25
2023-05-04T12:12:19.917Z,50.22
2023-05-04T12:13:20.042Z,50.21
2023-05-04T12:14:20.963Z,50.18
2023-05-04T12:15:20.053Z,50.19
2023-05-04T12:16:20.149Z,50.16
2023-05-04T12:17:20.120Z,50.17
2023-05-04T12:18:20.159Z,50.18
2023-05-04T12:19:20.278Z,50.15
2023-05-04T12:20:20.365Z,50.12
2023-05-04T12:21:20.376Z,50.14
2023-05-04T12:22:21.374Z,50.14
2023-05-04T12:23:20.508Z,50.10
2023-05-04T12:24:21.517Z,50.17
2023-05-04T12:25:21.569Z,50.16
2023-05-04T12:26:21.644Z,50.18
2023-05-04T12:27:21.746Z,50.16
2023-05-04T12:28:20.829Z,50.12
2023-05-04T12:29:20.832Z,50.14
2023-05-04T12:30:21.949Z,50.10
2023-05-04T12:31:21.630Z,50.11
2023-05-04T12:32:20.971Z,50.08
2023-05-04T12:33:22.142Z,50.11
2023-05-04T12:34:22.206Z,50.11
2023-05-04T12:35:21.188Z,50.08
2023-05-04T12:36:21.262Z,50.08
2023-05-04T12:37:22.622Z,50.06
2023-05-04T12:38:21.514Z,50.07
2023-05-04T12:39:21.600Z,50.06
2023-05-04T12:41:22.599Z,50.06
2023-05-04T12:42:21.610Z,50.05
2023-05-04T12:43:21.548Z,50.05
2023-05-04T12:44:21.610Z,50.06
2023-05-04T12:45:21.519Z,50.06
2023-05-04T12:46:21.624Z,50.06
2023-05-04T12:47:21.481Z,50.01
2023-05-04T12:48:22.481Z,50.03
2023-05-04T12:49:24.534Z,50.02
2023-05-04T12:50:21.477Z,50.03
2023-05-04T12:51:22.461Z,50.05
2023-05-04T12:52:21.528Z,50.03
2023-05-04T12:53:21.580Z,50.02
2023-05-04T12:54:21.443Z,50.03
2023-05-04T12:55:22.814Z,50.00
2023-05-04T12:56:21.444Z,50.01
2023-05-04T12:57:22.426Z,50.04
2023-05-04T12:58:22.396Z,50.00
2023-05-04T12:59:22.385Z,49.98
2023-05-04T13:00:21.401Z,49.99
2023-05-04T13:01:22.503Z,49.99
2023-05-04T13:02:21.498Z,49.98
2023-05-04T13:03:21.584Z,49.97
2023-05-04T13:04:21.364Z,49.99
2023-05-04T13:05:22.435Z,49.96
2023-05-04T13:06:21.344Z,49.97
2023-05-04T13:07:22.402Z,49.98
2023-05-04T13:08:21.373Z,49.98
2023-05-04T13:09:21.349Z,49.96
2023-05-04T13:10:21.340Z,49.96
2023-05-04T13:11:21.364Z,49.97
2023-05-04T13:12:21.417Z,49.94
2023-05-04T13:13:22.472Z,49.93
2023-05-04T13:14:21.352Z,49.95
2023-05-04T13:15:21.329Z,49.95
2023-05-04T13:16:21.395Z,49.95
2023-05-04T13:17:22.421Z,49.92
2023-05-04T13:18:21.283Z,49.93
2023-05-04T13:19:21.279Z,49.95
2023-05-04T13:20:21.301Z,49.91
2023-05-04T13:21:22.277Z,49.89
2023-05-04T13:22:21.277Z,49.90
2023-05-04T13:23:22.287Z,49.90
2023-05-04T13:24:21.285Z,49.91
2023-05-04T13:25:21.272Z,49.89
2023-05-04T13:26:22.319Z,49.88
2023-05-04T13:27:22.425Z,49.88
2023-05-04T13:28:21.494Z,49.85
2023-05-04T13:29:21.482Z,49.90
2023-05-04T13:30:22.646Z,49.87
2023-05-04T13:31:21.621Z,49.85
2023-05-04T13:32:21.657Z,49.86
2023-05-04T13:33:29.577Z,49.88
2023-05-04T13:34:22.732Z,49.88
2023-05-04T13:35:22.677Z,49.88
2023-05-04T13:36:21.722Z,49.87
2023-05-04T13:37:21.688Z,49.89
2023-05-04T13:38:22.673Z,49.84
2023-05-04T13:39:22.667Z,49.84
2023-05-04T13:40:21.635Z,49.88
2023-05-04T13:41:21.652Z,49.86
2023-05-04T13:42:21.610Z,49.83
2023-05-04T13:43:21.605Z,49.81
2023-05-04T13:44:22.646Z,49.84
2023-05-04T13:45:22.664Z,49.84
2023-05-04T13:46:21.710Z,49.84
2023-05-04T13:47:22.651Z,49.80
2023-05-04T13:48:21.564Z,49.80
2023-05-04T13:49:21.598Z,49.81
2023-05-04T13:50:21.633Z,49.79
2023-05-04T13:51:21.541Z,49.79
2023-05-04T13:52:21.587Z,49.78
2023-05-04T13:53:21.602Z,49.77
2023-05-04T13:54:21.615Z,49.78
2023-05-04T13:55:21.528Z,49.77
2023-05-04T13:56:22.617Z,49.79
2023-05-04T13:57:21.598Z,49.79
2023-05-04T13:58:22.511Z,49.81
2023-05-04T13:59:22.592Z,49.73
2023-05-04T14:00:21.561Z,49.79
2023-05-04T14:01:21.678Z,49.75
2023-05-04T14:02:22.757Z,49.75
2023-05-04T14:03:21.675Z,49.76
2023-05-04T14:04:22.680Z,49.76
2023-05-04T14:05:22.890Z,49.74
2023-05-04T14:06:22.767Z,49.72
2023-05-04T14:07:21.832Z,49.76
2023-05-04T14:08:21.983Z,49.74
2023-05-04T14:09:22.004Z,49.75
2023-05-04T14:10:22.066Z,49.73
2023-05-04T14:11:22.113Z,49.76
2023-05-04T14:12:22.170Z,49.72
2023-05-04T14:13:22.213Z,49.70
2023-05-04T14:14:22.209Z,49.68
2023-05-04T14:15:23.311Z,49.64
2023-05-04T14:16:23.342Z,49.59
2023-05-04T14:17:22.364Z,49.43
2023-05-04T14:18:22.496Z,49.45
2023-05-04T14:19:23.389Z,49.23
2023-05-04T14:20:22.337Z,49.90
2023-05-04T14:21:22.413Z,50.41
2023-05-04T14:22:23.447Z,49.90
2023-05-04T14:23:22.529Z,49.66
2023-05-04T14:24:22.492Z,49.77
2023-05-04T14:25:22.555Z,50.09
2023-05-04T14:26:22.519Z,50.28
2023-05-04T14:27:23.601Z,50.71
2023-05-04T14:28:23.659Z,50.32
2023-05-04T14:29:23.669Z,50.32
2023-05-04T14:30:22.634Z,50.39
2023-05-04T14:31:22.789Z,50.16
2023-05-04T14:32:23.773Z,50.08
2023-05-04T14:33:22.798Z,49.98
2023-05-04T14:34:22.831Z,49.94
2023-05-04T14:35:22.799Z,50.10
2023-05-04T14:36:22.862Z,50.21
2023-05-04T14:37:23.836Z,50.31
2023-05-04T14:38:23.904Z,50.33
2023-05-04T14:39:23.926Z,50.35
2023-05-04T14:40:22.872Z,50.29
2023-05-04T14:41:23.872Z,50.27
2023-05-04T14:42:22.964Z,50.24
2023-05-04T14:43:23.940Z,50.26
2023-05-04T14:44:24.027Z,50.34
2023-05-04T14:45:23.035Z,50.40
2023-05-04T14:46:23.097Z,50.60
2023-05-04T14:47:23.085Z,50.77
2023-05-04T14:48:23.025Z,50.93
2023-05-04T14:49:35.880Z,51.24
2023-05-04T14:50:24.028Z,51.23
2023-05-04T14:51:23.054Z,51.42
2023-05-04T14:52:23.018Z,51.47
2023-05-04T14:53:24.071Z,51.63
2023-05-04T14:54:24.092Z,51.77
2023-05-04T14:55:23.108Z,51.83
2023-05-04T14:56:23.078Z,51.92
2023-05-04T14:57:23.054Z,51.95
2023-05-04T14:58:23.072Z,51.97
2023-05-04T14:59:22.969Z,52.01
2023-05-04T15:00:24.090Z,52.05
2023-05-04T15:01:23.053Z,51.99
2023-05-04T15:02:23.013Z,52.01
2023-05-04T15:03:23.070Z,51.99
2023-05-04T15:04:24.100Z,51.99
2023-05-04T15:05:23.937Z,51.97
2023-05-04T15:06:22.925Z,51.98
2023-05-04T15:07:23.933Z,51.97
2023-05-04T15:08:23.902Z,52.00
2023-05-04T15:09:24.070Z,51.99
2023-05-04T15:10:22.963Z,51.99
2023-05-04T15:11:23.963Z,52.02
2023-05-04T15:12:23.058Z,51.96
2023-05-04T15:13:23.007Z,51.94
2023-05-04T15:14:24.035Z,51.92
2023-05-04T15:15:23.093Z,51.94
2023-05-04T15:16:23.124Z,51.90
2023-05-04T15:17:24.137Z,51.88
2023-05-04T15:18:24.132Z,51.92
2023-05-04T15:19:24.108Z,51.91
2023-05-04T15:20:23.165Z,51.88
2023-05-04T15:21:23.123Z,51.93
2023-05-04T15:22:24.141Z,51.94
2023-05-04T15:23:24.204Z,51.90
2023-05-04T15:24:24.164Z,51.83
2023-05-04T15:25:24.477Z,51.83
2023-05-04T15:26:23.192Z,51.81
2023-05-04T15:27:24.311Z,51.84
2023-05-04T15:28:23.297Z,51.83
2023-05-04T15:29:23.311Z,51.82
